Time;durP1;ratioP1;P1;durP2;ratioP2;P2;SDS_P1;SDS_P2;PMS_P1;PMS_P2;Temp;Humidity;BMP_temperature;BMP_pressure;BME280_temperature;BME280_humidity;BME280_pressure;Samples;Min_cycle;Max_cycle;Signal;HPM_P1;HPM_P2
2023/02/16 00:01:27;;;;;;;;;;;;;;;0.76;71.45;101946.66;1886477;75;20154;-40
2023/02/16 00:03:55;;;;;;;;;;;;;;;0.80;71.53;101946.30;1914055;75;20123;-40
2023/02/16 00:06:27;;;;;;;;;;;;;;;0.79;71.60;101951.02;1914147;75;20133;-43
2023/02/16 00:08:56;;;;;;;;;;;;;;;0.73;71.70;101950.47;1914975;75;20154;-38
2023/02/16 00:14:11;;;;;;;;;;;;;;;0.65;71.91;101945.99;1923497;75;20114;-38
2023/02/16 00:16:39;;;;;;;;;;;;;;;0.65;72.01;101942.97;1923684;75;20392;-39
2023/02/16 00:19:25;;;;;;;;;;;;;;;0.66;72.06;101939.52;1923531;75;20118;-39
2023/02/16 00:21:54;;;;;;;;;;;;;;;0.67;72.17;101938.69;1923564;75;20149;-38
2023/02/16 00:24:22;;;;;;;;;;;;;;;0.63;72.27;101936.88;1923525;75;20129;-38
2023/02/16 00:26:50;;;;;;;;;;;;;;;0.63;72.27;101934.29;1923682;75;20102;-37
2023/02/16 00:29:26;;;;;;;;;;;;;;;0.64;72.27;101935.16;1923559;75;20110;-37
2023/02/16 00:31:54;;;;;;;;;;;;;;;0.67;72.10;101940.41;1922373;75;20145;-36
2023/02/16 00:34:32;;;;;;;;;;;;;;;0.74;71.84;101939.27;1923541;75;20114;-39
2023/02/16 00:37:01;;;;;;;;;;;;;;;0.75;71.77;101936.25;1955037;73;20163;-37
2023/02/16 00:39:29;;;;;;;;;;;;;;;0.74;71.84;101936.68;1955227;73;20116;-37
2023/02/16 00:42:04;;;;;;;;;;;;;;;0.73;71.91;101942.69;1955273;73;20108;-39
2023/02/16 00:44:35;;;;;;;;;;;;;;;0.65;72.21;101944.27;1955200;73;20545;-38
2023/02/16 00:47:05;;;;;;;;;;;;;;;0.64;72.31;101950.28;1955655;73;20447;-39
2023/02/16 00:49:33;;;;;;;;;;;;;;;0.64;72.34;101941.63;1953500;73;20116;-35
2023/02/16 00:52:01;;;;;;;;;;;;;;;0.63;72.41;101939.47;1955177;73;20100;-39
2023/02/16 00:54:29;;;;;;;;;;;;;;;0.63;72.47;101943.76;1955247;73;20151;-39
2023/02/16 00:56:57;;;;;;;;;;;;;;;0.69;72.39;101950.39;1954846;73;20108;-40
2023/02/16 00:59:24;;;;;;;;;;;;;;;0.66;72.40;101947.72;1950079;72;20195;-39
2023/02/16 01:01:52;;;;;;;;;;;;;;;0.64;72.43;101954.59;1955240;73;20112;-39
2023/02/16 01:04:22;;;;;;;;;;;;;;;0.64;72.33;101957.19;1933415;73;20384;-38
2023/02/16 01:12:21;;;;;;;;;;;;;;;0.69;72.18;101956.44;1921364;73;20995;-40
2023/02/16 01:14:51;;;;;;;;;;;;;;;0.76;72.02;101960.91;1921530;75;20349;-39
2023/02/16 01:17:18;;;;;;;;;;;;;;;0.81;71.82;101959.70;1926598;73;20140;-42
2023/02/16 01:19:46;;;;;;;;;;;;;;;0.81;71.82;101961.00;1936540;73;20378;-40
2023/02/16 01:22:16;;;;;;;;;;;;;;;0.83;71.72;101961.03;1955099;73;20138;-40
2023/02/16 01:24:43;;;;;;;;;;;;;;;0.79;71.83;101954.91;1958279;72;20116;-41
2023/02/16 01:27:13;;;;;;;;;;;;;;;0.79;71.92;101960.09;1991056;72;20443;-39
2023/02/16 01:29:40;;;;;;;;;;;;;;;0.78;71.88;101958.36;1991025;72;20144;-38
2023/02/16 01:32:10;;;;;;;;;;;;;;;0.71;72.04;101963.83;1990870;72;20144;-38
2023/02/16 01:34:38;;;;;;;;;;;;;;;0.72;72.01;101963.00;1990986;72;20405;-38
2023/02/16 01:37:06;;;;;;;;;;;;;;;0.75;71.96;101961.74;1958443;72;20551;-38
2023/02/16 01:39:34;;;;;;;;;;;;;;;0.69;72.04;101963.35;1954897;73;20167;-39
2023/02/16 01:42:03;;;;;;;;;;;;;;;0.62;72.14;101960.17;1954856;73;20108;-40
2023/02/16 01:44:32;;;;;;;;;;;;;;;0.56;72.27;101961.78;1946694;73;20114;-38
2023/02/16 01:47:05;;;;;;;;;;;;;;;0.54;72.44;101967.36;1918449;75;20106;-38
2023/02/16 01:49:33;;;;;;;;;;;;;;;0.60;72.25;101964.02;1920708;73;20103;-39
2023/02/16 01:52:05;;;;;;;;;;;;;;;0.60;72.24;101966.61;1920668;75;20118;-39
2023/02/16 01:54:43;;;;;;;;;;;;;;;0.55;72.36;101969.52;1920654;75;20145;-39
2023/02/16 01:57:13;;;;;;;;;;;;;;;0.51;72.46;101970.30;1885217;73;20107;-38
2023/02/16 01:59:42;;;;;;;;;;;;;;;0.45;72.63;101968.88;1889492;75;20180;-38
2023/02/16 02:02:19;;;;;;;;;;;;;;;0.52;72.67;101973.36;1915925;75;20114;-38
2023/02/16 02:07:35;;;;;;;;;;;;;;;0.66;72.19;101974.94;1920766;75;20118;-39
2023/02/16 02:10:07;;;;;;;;;;;;;;;0.64;72.01;101976.20;1919858;74;20106;-38
2023/02/16 02:12:36;;;;;;;;;;;;;;;0.66;71.82;101973.65;1934541;74;20143;-37
2023/02/16 02:15:05;;;;;;;;;;;;;;;0.67;71.68;101980.16;1949516;74;20160;-38
2023/02/16 02:17:34;;;;;;;;;;;;;;;0.68;71.73;101981.93;1950275;74;20389;-39
2023/02/16 02:20:03;;;;;;;;;;;;;;;0.69;71.58;101984.95;1950251;74;20151;-38
2023/02/16 02:25:25;;;;;;;;;;;;;;;0.67;71.36;101980.16;1940178;73;20393;-39
2023/02/16 02:28:11;;;;;;;;;;;;;;;0.62;71.64;101976.59;1932139;73;20100;-41
2023/02/16 02:30:43;;;;;;;;;;;;;;;0.60;71.85;101980.88;1940561;73;20147;-41
2023/02/16 02:33:19;;;;;;;;;;;;;;;0.61;71.94;101981.34;1938751;73;20227;-40
2023/02/16 02:35:51;;;;;;;;;;;;;;;0.64;71.84;101977.92;1939701;73;20117;-40
2023/02/16 02:38:37;;;;;;;;;;;;;;;0.61;71.84;101986.52;1939100;73;20164;-42
2023/02/16 02:41:06;;;;;;;;;;;;;;;0.53;71.99;101983.73;1936959;73;20266;-39
2023/02/16 02:43:36;;;;;;;;;;;;;;;0.41;72.28;101982.58;1939467;73;20227;-43
2023/02/16 02:46:05;;;;;;;;;;;;;;;0.36;72.47;101991.14;1923339;73;20236;-41
2023/02/16 02:48:33;;;;;;;;;;;;;;;0.31;72.59;101984.09;1940051;73;20200;-43
2023/02/16 02:51:49;;;;;;;;;;;;;;;0.28;72.67;101986.20;1937913;73;20469;-40
2023/02/16 02:53:35;;;;;;;;;;;;;;;0.30;72.79;101983.66;1916167;73;20246;-42
2023/02/16 03:01:40;;;;;;;;;;;;;;;0.18;72.59;101979.05;1940138;73;20159;-39
2023/02/16 03:04:08;;;;;;;;;;;;;;;0.08;72.59;101980.98;1939818;73;20116;-42
2023/02/16 03:06:38;;;;;;;;;;;;;;;0.02;72.51;101973.05;1942586;73;20242;-39
2023/02/16 03:09:07;;;;;;;;;;;;;;;-0.07;72.52;101977.17;1940674;73;20452;-40
2023/02/16 03:14:22;;;;;;;;;;;;;;;-0.17;72.23;101975.19;1942478;73;20147;-40
2023/02/16 03:30:45;;;;;;;;;;;;;;;-0.48;72.32;101989.95;1932385;73;20408;-44
2023/02/16 03:33:13;;;;;;;;;;;;;;;-0.52;72.27;101999.73;1933068;73;20225;-39
2023/02/16 03:35:40;;;;;;;;;;;;;;;-0.56;72.36;101996.61;1936153;73;20201;-37
2023/02/16 03:38:08;;;;;;;;;;;;;;;-0.55;72.48;102003.55;1941781;73;20149;-38
2023/02/16 03:40:39;;;;;;;;;;;;;;;-0.53;72.45;102000.59;1950269;73;20390;-40
2023/02/16 03:43:07;;;;;;;;;;;;;;;-0.51;72.34;102002.80;1950615;73;20112;-40
2023/02/16 03:45:36;;;;;;;;;;;;;;;-0.52;72.04;102001.03;1942123;73;20159;-40
2023/02/16 03:48:04;;;;;;;;;;;;;;;-0.55;71.94;102007.83;1938561;73;20118;-39
2023/02/16 03:50:32;;;;;;;;;;;;;;;-0.59;72.15;102011.65;1951349;73;20214;-42
2023/02/16 03:53:08;;;;;;;;;;;;;;;-0.53;72.31;102019.99;1934255;73;20197;-39
2023/02/16 03:55:37;;;;;;;;;;;;;;;-0.47;72.41;102027.91;1949621;73;20112;-39
2023/02/16 03:58:06;;;;;;;;;;;;;;;-0.43;72.54;102014.21;1955513;73;20429;-39
2023/02/16 04:00:34;;;;;;;;;;;;;;;-0.35;72.36;102018.72;1955522;73;20191;-39
2023/02/16 04:03:02;;;;;;;;;;;;;;;-0.28;72.30;102024.09;1951366;73;20100;-39
2023/02/16 04:05:31;;;;;;;;;;;;;;;-0.21;72.22;102027.73;1951728;73;20124;-39
2023/02/16 04:07:59;;;;;;;;;;;;;;;-0.17;72.16;102039.04;1955401;73;20100;-38
2023/02/16 04:10:27;;;;;;;;;;;;;;;-0.17;72.29;102032.14;1925741;73;20367;-37
2023/02/16 04:12:55;;;;;;;;;;;;;;;-0.21;72.38;102037.66;1924349;73;20157;-37
2023/02/16 04:15:25;;;;;;;;;;;;;;;-0.27;72.70;102041.81;1946773;73;20143;-37
2023/02/16 04:17:53;;;;;;;;;;;;;;;-0.25;72.70;102044.89;1953529;73;20209;-39
2023/02/16 04:20:22;;;;;;;;;;;;;;;-0.19;72.73;102044.17;1955112;73;20104;-38
2023/02/16 04:22:50;;;;;;;;;;;;;;;-0.11;72.69;102042.67;1954686;73;20108;-39
2023/02/16 04:25:18;;;;;;;;;;;;;;;-0.04;72.52;102052.35;1956361;73;20116;-39
2023/02/16 04:27:46;;;;;;;;;;;;;;;0.01;72.31;102049.00;1932642;73;20102;-40
2023/02/16 04:30:15;;;;;;;;;;;;;;;-0.03;72.24;102051.50;1956446;73;20123;-39
2023/02/16 04:32:43;;;;;;;;;;;;;;;-0.07;72.18;102053.56;1954864;73;20112;-38
2023/02/16 04:35:11;;;;;;;;;;;;;;;-0.12;72.30;102056.44;1956354;73;20104;-38
2023/02/16 04:37:39;;;;;;;;;;;;;;;-0.09;72.36;102056.53;1931067;73;20126;-38
2023/02/16 04:40:09;;;;;;;;;;;;;;;-0.08;72.42;102066.03;1952426;73;20230;-38
2023/02/16 04:42:37;;;;;;;;;;;;;;;-0.08;72.60;102064.73;1952798;73;20116;-39
2023/02/16 04:45:05;;;;;;;;;;;;;;;-0.07;72.76;102069.09;1952725;73;20139;-39
2023/02/16 04:47:32;;;;;;;;;;;;;;;-0.08;72.89;102068.63;1952811;73;20154;-38
2023/02/16 04:50:00;;;;;;;;;;;;;;;-0.02;72.68;102070.49;1950305;73;20102;-38
2023/02/16 04:52:28;;;;;;;;;;;;;;;0.03;72.38;102071.92;1954663;73;20146;-38
2023/02/16 04:54:56;;;;;;;;;;;;;;;0.08;72.21;102072.50;1956352;73;20156;-39
2023/02/16 04:57:24;;;;;;;;;;;;;;;0.13;71.99;102077.78;1957039;73;20116;-38
2023/02/16 04:59:52;;;;;;;;;;;;;;;0.16;72.03;102077.86;1954792;73;20112;-38
2023/02/16 05:02:19;;;;;;;;;;;;;;;0.19;72.03;102081.84;1953869;73;20116;-38
2023/02/16 05:04:47;;;;;;;;;;;;;;;0.15;72.15;102082.61;1956285;73;20100;-38
2023/02/16 05:07:15;;;;;;;;;;;;;;;0.17;72.41;102082.22;1953105;73;20156;-38
2023/02/16 05:09:43;;;;;;;;;;;;;;;0.25;72.26;102092.34;1956453;73;20147;-38
2023/02/16 05:14:56;;;;;;;;;;;;;;;0.35;71.84;102090.84;1950095;73;20124;-39
2023/02/16 05:17:25;;;;;;;;;;;;;;;0.40;71.94;102094.44;1952518;73;20104;-39
2023/02/16 05:19:54;;;;;;;;;;;;;;;0.45;71.83;102094.14;1956012;73;20116;-39
2023/02/16 05:22:22;;;;;;;;;;;;;;;0.48;71.67;102096.81;1952708;73;20143;-40
2023/02/16 05:24:50;;;;;;;;;;;;;;;0.49;71.63;102098.98;1952904;73;20116;-39
2023/02/16 05:27:22;;;;;;;;;;;;;;;0.52;71.64;102105.11;1942456;73;20118;-39
2023/02/16 05:29:50;;;;;;;;;;;;;;;0.58;71.59;102105.68;1937378;73;20397;-38
2023/02/16 05:32:18;;;;;;;;;;;;;;;0.62;71.45;102112.68;1957896;73;20112;-38
2023/02/16 05:34:46;;;;;;;;;;;;;;;0.64;71.39;102109.70;1955868;73;20164;-39
2023/02/16 05:37:14;;;;;;;;;;;;;;;0.67;71.42;102116.27;1960213;73;20155;-39
2023/02/16 05:39:42;;;;;;;;;;;;;;;0.68;71.65;102115.44;1919622;73;20123;-39
2023/02/16 05:42:10;;;;;;;;;;;;;;;0.70;72.03;102117.64;1910694;74;20105;-39
2023/02/16 05:44:38;;;;;;;;;;;;;;;0.74;71.83;102123.35;1924445;74;20117;-39
2023/02/16 05:47:05;;;;;;;;;;;;;;;0.81;71.61;102127.38;1898721;74;20167;-38
2023/02/16 05:49:33;;;;;;;;;;;;;;;0.81;71.46;102126.95;1903089;74;20117;-39
2023/02/16 05:52:01;;;;;;;;;;;;;;;0.84;71.33;102131.34;1911639;74;20146;-38
2023/02/16 05:54:29;;;;;;;;;;;;;;;0.85;71.27;102129.19;1893852;74;20107;-42
2023/02/16 05:56:57;;;;;;;;;;;;;;;0.85;71.15;102134.38;1912948;74;20113;-38
2023/02/16 05:59:24;;;;;;;;;;;;;;;0.84;71.11;102141.29;1924141;74;20147;-38
2023/02/16 06:01:52;;;;;;;;;;;;;;;0.82;71.19;102138.22;1893965;74;20373;-37
2023/02/16 06:04:21;;;;;;;;;;;;;;;0.83;71.21;102142.15;1899616;74;20184;-37
2023/02/16 06:06:49;;;;;;;;;;;;;;;0.83;71.33;102139.95;1924176;74;20117;-37
2023/02/16 06:09:16;;;;;;;;;;;;;;;0.85;71.52;102143.45;1926669;74;20105;-37
2023/02/16 06:11:44;;;;;;;;;;;;;;;0.92;71.56;102145.35;1920259;74;20146;-38
2023/02/16 06:14:14;;;;;;;;;;;;;;;0.99;71.38;102139.47;1893663;76;20116;-38
2023/02/16 06:16:43;;;;;;;;;;;;;;;1.09;71.19;102146.63;1924499;74;20367;-38
2023/02/16 06:19:10;;;;;;;;;;;;;;;1.19;71.30;102145.55;1896834;74;20385;-38
2023/02/16 06:21:38;;;;;;;;;;;;;;;1.26;71.28;102146.13;1893711;76;20115;-39
2023/02/16 06:24:08;;;;;;;;;;;;;;;1.31;71.17;102143.19;1893665;76;20163;-39
2023/02/16 06:26:35;;;;;;;;;;;;;;;1.27;71.09;102149.16;1916952;74;20372;-39
2023/02/16 06:29:04;;;;;;;;;;;;;;;1.29;71.33;102150.97;1921782;74;20122;-40
2023/02/16 06:31:32;;;;;;;;;;;;;;;1.33;71.48;102149.33;1898443;74;20167;-38
2023/02/16 06:34:02;;;;;;;;;;;;;;;1.37;71.67;102147.23;1893627;76;20116;-38
2023/02/16 06:36:29;;;;;;;;;;;;;;;1.49;71.81;102152.67;1919401;74;20115;-37
2023/02/16 06:38:56;;;;;;;;;;;;;;;1.83;71.90;102147.31;1929947;73;20153;-39
2023/02/16 06:41:30;;;;;;;;;;;;;;;2.28;71.41;102145.97;1944406;73;20112;-38
2023/02/16 06:43:59;;;;;;;;;;;;;;;2.47;71.01;102146.29;1965275;73;20175;-38
2023/02/16 06:46:27;;;;;;;;;;;;;;;2.56;70.80;102139.08;1940756;73;20192;-39
2023/02/16 06:48:54;;;;;;;;;;;;;;;2.87;70.84;102141.73;1931287;73;20113;-39
2023/02/16 06:51:22;;;;;;;;;;;;;;;3.39;70.71;102139.86;1963098;73;20100;-38
2023/02/16 06:53:50;;;;;;;;;;;;;;;3.84;70.00;102147.81;1965152;73;20100;-38
2023/02/16 06:56:18;;;;;;;;;;;;;;;3.93;69.46;102156.17;1962600;73;20119;-38
2023/02/16 06:58:46;;;;;;;;;;;;;;;3.89;69.28;102153.05;1933915;73;20114;-38
2023/02/16 07:01:13;;;;;;;;;;;;;;;3.73;69.31;102155.94;1952807;73;20116;-37
2023/02/16 07:03:41;;;;;;;;;;;;;;;3.60;69.39;102160.55;1964236;73;20112;-37
2023/02/16 07:06:09;;;;;;;;;;;;;;;3.43;69.30;102158.60;1957775;73;20112;-38
2023/02/16 07:08:36;;;;;;;;;;;;;;;3.38;69.36;102164.61;1932605;73;20145;-38
2023/02/16 07:11:04;;;;;;;;;;;;;;;3.25;69.37;102168.77;1949417;73;20159;-38
2023/02/16 07:13:35;;;;;;;;;;;;;;;3.16;69.29;102168.64;1952765;73;20101;-38
2023/02/16 07:16:03;;;;;;;;;;;;;;;3.08;69.20;102172.00;1931075;73;20122;-38
2023/02/16 07:18:31;;;;;;;;;;;;;;;3.01;69.06;102170.16;1931250;73;20098;-37
2023/02/16 07:20:59;;;;;;;;;;;;;;;2.91;69.03;102177.36;1932501;73;20106;-37
2023/02/16 07:23:26;;;;;;;;;;;;;;;2.81;69.20;102180.68;1963601;73;20162;-38
2023/02/16 07:25:54;;;;;;;;;;;;;;;2.75;69.49;102185.36;1957418;73;20110;-38
2023/02/16 07:28:22;;;;;;;;;;;;;;;2.66;69.67;102186.07;1930987;74;20114;-38
2023/02/16 07:30:50;;;;;;;;;;;;;;;2.65;69.68;102190.81;1950275;73;20119;-38
2023/02/16 07:33:18;;;;;;;;;;;;;;;2.53;69.92;102188.02;1962670;73;20116;-38
2023/02/16 07:35:45;;;;;;;;;;;;;;;2.46;70.30;102184.86;1933245;73;20115;-39
2023/02/16 07:38:13;;;;;;;;;;;;;;;2.60;70.27;102187.68;1933228;73;20110;-38
2023/02/16 07:40:41;;;;;;;;;;;;;;;2.76;70.05;102188.83;1945773;73;20150;-38
2023/02/16 07:43:09;;;;;;;;;;;;;;;2.77;70.14;102191.45;1957570;73;20142;-38
2023/02/16 07:45:37;;;;;;;;;;;;;;;2.81;70.03;102195.85;1957421;73;20167;-38
2023/02/16 07:48:05;;;;;;;;;;;;;;;2.76;70.22;102198.80;1958889;73;20112;-38
2023/02/16 07:50:32;;;;;;;;;;;;;;;2.77;70.17;102199.70;1958247;73;20116;-39
2023/02/16 07:53:03;;;;;;;;;;;;;;;2.78;70.12;102206.63;1939768;73;20102;-39
2023/02/16 07:55:31;;;;;;;;;;;;;;;2.80;70.14;102203.63;1959774;73;20103;-38
2023/02/16 07:57:59;;;;;;;;;;;;;;;2.81;70.09;102202.79;1965833;73;20146;-38
2023/02/16 08:00:27;;;;;;;;;;;;;;;2.79;70.02;102201.89;1962280;73;20121;-38
2023/02/16 08:02:55;;;;;;;;;;;;;;;2.84;69.72;102198.91;1942574;73;20110;-38
2023/02/16 08:05:23;;;;;;;;;;;;;;;2.92;69.42;102201.23;1927151;73;20145;-38
2023/02/16 08:07:50;;;;;;;;;;;;;;;3.01;68.93;102205.72;1949731;73;20116;-38
2023/02/16 08:10:19;;;;;;;;;;;;;;;3.07;68.66;102201.46;1959134;73;20193;-39
2023/02/16 08:12:48;;;;;;;;;;;;;;;3.09;68.79;102204.96;1959206;73;20386;-39
2023/02/16 08:15:16;;;;;;;;;;;;;;;3.17;68.89;102209.41;1956777;73;20152;-40
2023/02/16 08:17:44;;;;;;;;;;;;;;;3.25;69.20;102203.91;1959167;73;20171;-39
2023/02/16 08:20:12;;;;;;;;;;;;;;;3.41;69.33;102208.89;1959120;73;20116;-39
2023/02/16 08:22:40;;;;;;;;;;;;;;;3.59;69.37;102211.75;1959102;73;20116;-37
2023/02/16 08:25:08;;;;;;;;;;;;;;;3.73;69.23;102218.45;1956635;73;20194;-40
2023/02/16 08:27:36;;;;;;;;;;;;;;;3.87;68.75;102217.31;1959122;73;20116;-38
2023/02/16 08:30:04;;;;;;;;;;;;;;;3.88;68.14;102218.21;1959059;73;20142;-39
2023/02/16 08:32:32;;;;;;;;;;;;;;;3.77;68.16;102224.15;1959126;73;20433;-39
2023/02/16 08:35:00;;;;;;;;;;;;;;;3.69;68.10;102219.28;1958238;73;20112;-40
2023/02/16 08:37:28;;;;;;;;;;;;;;;3.54;68.12;102222.96;1959118;73;20186;-40
2023/02/16 08:39:59;;;;;;;;;;;;;;;3.41;67.60;102222.81;1959066;73;20116;-40
2023/02/16 08:42:25;;;;;;;;;;;;;;;3.37;67.96;102227.50;1958971;73;20105;-40
2023/02/16 08:44:53;;;;;;;;;;;;;;;3.33;68.07;102220.94;1958248;73;20247;-40
2023/02/16 08:47:23;;;;;;;;;;;;;;;3.30;67.91;102226.95;1952830;73;20101;-40
2023/02/16 08:49:50;;;;;;;;;;;;;;;3.22;68.03;102220.34;1952834;73;20154;-40
2023/02/16 08:52:18;;;;;;;;;;;;;;;3.35;68.08;102222.70;1952831;73;20163;-40
2023/02/16 08:54:46;;;;;;;;;;;;;;;3.54;67.97;102230.77;1952162;73;20112;-40
2023/02/16 08:57:13;;;;;;;;;;;;;;;3.67;67.84;102228.77;1954693;73;20112;-39
2023/02/16 08:59:41;;;;;;;;;;;;;;;3.74;67.43;102231.91;1955162;73;20147;-39
2023/02/16 09:02:11;;;;;;;;;;;;;;;3.68;67.12;102234.45;1955231;73;20116;-39
2023/02/16 09:04:38;;;;;;;;;;;;;;;3.55;66.45;102235.14;1955365;73;20151;-40
2023/02/16 09:07:06;;;;;;;;;;;;;;;3.33;65.63;102233.95;1952289;73;20150;-39
2023/02/16 09:09:34;;;;;;;;;;;;;;;3.18;66.77;102240.67;1921350;75;20114;-39
2023/02/16 09:12:01;;;;;;;;;;;;;;;3.16;66.87;102242.38;1921416;75;20521;-39
2023/02/16 09:14:29;;;;;;;;;;;;;;;3.17;66.86;102244.55;1921389;75;20118;-39
2023/02/16 09:16:57;;;;;;;;;;;;;;;3.12;66.75;102243.19;1939641;73;20120;-39
2023/02/16 09:19:27;;;;;;;;;;;;;;;3.06;66.82;102245.27;1947164;73;20409;-38
2023/02/16 09:21:55;;;;;;;;;;;;;;;3.03;66.88;102242.61;1947799;74;20323;-39
2023/02/16 09:24:22;;;;;;;;;;;;;;;2.97;66.77;102245.53;1950515;74;20139;-39
2023/02/16 09:26:50;;;;;;;;;;;;;;;2.91;66.23;102245.00;1954146;73;20143;-39
2023/02/16 09:29:20;;;;;;;;;;;;;;;2.75;66.75;102246.88;1960853;73;20155;-39
2023/02/16 09:31:48;;;;;;;;;;;;;;;2.82;66.83;102252.25;1960867;73;20282;-38
2023/02/16 09:34:20;;;;;;;;;;;;;;;2.91;66.86;102245.00;1964938;73;20146;-39
2023/02/16 09:36:48;;;;;;;;;;;;;;;3.08;66.77;102254.38;1972301;73;20407;-38
2023/02/16 09:39:16;;;;;;;;;;;;;;;3.24;66.58;102251.61;1972320;73;20127;-37
2023/02/16 09:42:04;;;;;;;;;;;;;;;3.37;66.38;102254.84;1963282;73;20104;-37
2023/02/16 09:44:49;;;;;;;;;;;;;;;3.58;66.27;102246.88;1959274;73;20104;-38
2023/02/16 09:47:19;;;;;;;;;;;;;;;3.82;65.47;102261.57;1959142;73;20120;-39
2023/02/16 09:49:47;;;;;;;;;;;;;;;3.96;65.42;102253.05;1959173;73;20150;-39
2023/02/16 09:52:19;;;;;;;;;;;;;;;4.12;65.66;102256.29;1959315;73;20398;-39
2023/02/16 09:54:57;;;;;;;;;;;;;;;4.48;65.78;102256.24;1959146;73;20120;-39
2023/02/16 09:57:26;;;;;;;;;;;;;;;4.87;64.97;102256.63;1959196;73;20100;-39
2023/02/16 09:59:55;;;;;;;;;;;;;;;5.05;63.94;102256.77;1959269;73;20112;-37
2023/02/16 10:02:40;;;;;;;;;;;;;;;5.19;63.82;102251.68;1957825;73;20146;-37
2023/02/16 10:05:16;;;;;;;;;;;;;;;5.26;63.24;102255.22;1959214;73;20440;-37
2023/02/16 10:07:56;;;;;;;;;;;;;;;5.24;63.09;102263.04;1957421;73;20115;-37
2023/02/16 10:10:25;;;;;;;;;;;;;;;5.97;62.40;102257.38;1957403;73;20097;-39
2023/02/16 10:12:54;;;;;;;;;;;;;;;6.11;61.57;102252.22;1950363;73;20100;-39
2023/02/16 10:15:24;;;;;;;;;;;;;;;5.94;61.76;102246.90;1949016;73;20116;-39
2023/02/16 10:17:57;;;;;;;;;;;;;;;5.81;61.55;102252.95;1950718;74;20108;-39
2023/02/16 10:20:33;;;;;;;;;;;;;;;6.04;61.12;102250.45;1950513;73;20147;-41
2023/02/16 10:23:02;;;;;;;;;;;;;;;6.13;60.90;102242.64;1950708;74;20108;-40
2023/02/16 10:25:44;;;;;;;;;;;;;;;6.11;60.66;102248.74;1949956;73;20104;-40
2023/02/16 10:28:17;;;;;;;;;;;;;;;5.83;60.88;102248.59;1950612;74;20146;-41
2023/02/16 10:30:49;;;;;;;;;;;;;;;5.60;61.26;102256.30;1950465;74;20142;-40
2023/02/16 10:33:35;;;;;;;;;;;;;;;5.63;61.64;102258.07;1949596;73;20371;-40
2023/02/16 10:36:05;;;;;;;;;;;;;;;5.64;60.33;102257.19;1965731;72;20106;-42
2023/02/16 10:38:40;;;;;;;;;;;;;;;5.71;61.25;102261.59;1964000;72;20104;-40
2023/02/16 10:41:15;;;;;;;;;;;;;;;5.89;61.45;102254.28;1965046;72;20114;-42
2023/02/16 10:43:53;;;;;;;;;;;;;;;6.85;58.75;102248.45;1926139;73;20394;-39
2023/02/16 10:46:22;;;;;;;;;;;;;;;7.13;57.64;102249.77;1923705;75;20104;-38
2023/02/16 10:48:54;;;;;;;;;;;;;;;8.28;55.08;102245.92;1922206;74;20113;-38
2023/02/16 10:51:26;;;;;;;;;;;;;;;9.88;53.04;102236.67;1923773;75;20350;-39
2023/02/16 10:53:54;;;;;;;;;;;;;;;10.57;52.11;102239.73;1956227;73;20118;-43
2023/02/16 10:56:35;;;;;;;;;;;;;;;11.69;50.30;102231.64;1957837;73;20106;-39
2023/02/16 10:59:05;;;;;;;;;;;;;;;12.51;48.85;102235.20;1957933;73;20406;-40
2023/02/16 11:01:38;;;;;;;;;;;;;;;12.99;48.41;102235.38;1957869;73;20387;-40
2023/02/16 11:04:06;;;;;;;;;;;;;;;13.14;48.10;102231.86;1957686;73;20106;-42
2023/02/16 11:06:34;;;;;;;;;;;;;;;13.68;47.38;102234.86;1957852;73;20114;-40
2023/02/16 11:09:03;;;;;;;;;;;;;;;12.67;47.74;102233.94;1957840;73;20140;-40
2023/02/16 11:11:32;;;;;;;;;;;;;;;12.71;47.70;102234.73;1933176;73;20385;-39
2023/02/16 11:14:01;;;;;;;;;;;;;;;12.99;46.86;102232.73;1923576;74;20147;-39
2023/02/16 11:16:29;;;;;;;;;;;;;;;12.97;46.60;102234.08;1923596;75;20178;-39
2023/02/16 11:19:01;;;;;;;;;;;;;;;12.08;47.85;102237.45;1923600;74;20125;-39
2023/02/16 11:21:43;;;;;;;;;;;;;;;10.37;47.26;102240.02;1923798;75;20410;-38
2023/02/16 11:24:12;;;;;;;;;;;;;;;9.99;49.57;102240.04;1927819;74;20366;-38
2023/02/16 11:26:40;;;;;;;;;;;;;;;10.74;48.00;102236.83;1930378;74;20155;-39
2023/02/16 11:29:09;;;;;;;;;;;;;;;11.36;47.58;102238.41;1930294;74;20112;-39
2023/02/16 11:31:38;;;;;;;;;;;;;;;10.90;47.87;102240.09;1926460;74;20160;-39
2023/02/16 11:34:07;;;;;;;;;;;;;;;10.13;48.51;102238.56;1928761;74;20104;-39
2023/02/16 11:36:39;;;;;;;;;;;;;;;9.46;49.71;102242.42;1930354;74;20119;-39
2023/02/16 11:39:14;;;;;;;;;;;;;;;9.91;49.03;102237.96;1930358;74;20108;-38
2023/02/16 11:41:47;;;;;;;;;;;;;;;10.47;48.16;102239.42;1935586;73;20150;-38
2023/02/16 11:44:16;;;;;;;;;;;;;;;10.54;48.27;102229.69;1951379;73;20121;-38
2023/02/16 11:46:43;;;;;;;;;;;;;;;10.75;48.40;102234.63;1947834;74;20148;-38
2023/02/16 11:49:22;;;;;;;;;;;;;;;10.94;47.65;102235.65;1949601;74;20186;-38
2023/02/16 11:51:49;;;;;;;;;;;;;;;10.82;46.97;102232.29;1947820;74;20168;-39
2023/02/16 11:54:17;;;;;;;;;;;;;;;9.80;47.96;102238.54;1942016;74;20117;-39
2023/02/16 11:56:47;;;;;;;;;;;;;;;9.46;48.67;102234.53;1923578;75;20124;-39
2023/02/16 11:59:21;;;;;;;;;;;;;;;9.83;48.78;102230.59;1921824;74;20105;-39
2023/02/16 12:01:53;;;;;;;;;;;;;;;10.21;47.83;102231.88;1939572;72;20163;-40
2023/02/16 12:04:28;;;;;;;;;;;;;;;10.09;47.16;102228.08;1981433;72;20152;-39
2023/02/16 12:07:07;;;;;;;;;;;;;;;9.49;47.22;102240.19;1971892;72;20230;-38
2023/02/16 12:09:42;;;;;;;;;;;;;;;9.27;48.37;102240.39;1945361;74;20116;-37
2023/02/16 12:12:11;;;;;;;;;;;;;;;9.35;48.72;102236.82;1944125;74;20171;-38
2023/02/16 12:14:46;;;;;;;;;;;;;;;9.39;49.55;102238.56;1924062;74;20109;-37
2023/02/16 12:17:34;;;;;;;;;;;;;;;9.21;50.20;102245.72;1945111;74;20117;-37
2023/02/16 12:20:12;;;;;;;;;;;;;;;8.68;49.77;102249.65;1942849;74;20151;-37
2023/02/16 12:22:41;;;;;;;;;;;;;;;8.41;50.64;102249.34;1941914;74;20156;-37
2023/02/16 12:25:23;;;;;;;;;;;;;;;8.26;51.24;102247.69;1943045;74;20143;-35
2023/02/16 12:28:11;;;;;;;;;;;;;;;7.85;51.39;102246.98;1943151;74;20105;-35
2023/02/16 12:30:39;;;;;;;;;;;;;;;7.53;51.92;102249.72;1943852;74;20104;-35
2023/02/16 12:33:09;;;;;;;;;;;;;;;7.24;52.10;102253.24;1942494;74;20116;-35
2023/02/16 12:35:42;;;;;;;;;;;;;;;6.94;52.36;102252.38;1938943;74;20108;-35
2023/02/16 12:38:17;;;;;;;;;;;;;;;6.63;52.70;102265.88;1924713;73;20109;-37
2023/02/16 12:40:56;;;;;;;;;;;;;;;6.42;53.15;102267.13;1923663;73;20143;-36
2023/02/16 12:43:44;;;;;;;;;;;;;;;6.07;53.42;102274.01;1945546;73;20168;-36
2023/02/16 12:46:22;;;;;;;;;;;;;;;5.68;53.91;102282.06;1953402;73;20143;-37
2023/02/16 12:48:56;;;;;;;;;;;;;;;5.23;54.46;102279.55;1953186;73;20186;-36
2023/02/16 12:51:25;;;;;;;;;;;;;;;5.04;54.90;102285.07;1953565;73;20135;-36
2023/02/16 12:53:58;;;;;;;;;;;;;;;4.98;54.86;102288.50;1951706;73;20393;-36
2023/02/16 12:56:27;;;;;;;;;;;;;;;4.73;53.71;102289.99;1953377;73;20135;-36
2023/02/16 12:58:56;;;;;;;;;;;;;;;4.36;54.89;102292.64;1952149;73;20256;-37
2023/02/16 13:01:29;;;;;;;;;;;;;;;4.22;55.26;102294.67;1952467;73;20136;-37
2023/02/16 13:03:58;;;;;;;;;;;;;;;4.21;55.40;102299.86;1953447;73;20127;-36
2023/02/16 13:06:28;;;;;;;;;;;;;;;4.18;55.62;102301.98;1953465;73;20147;-36
2023/02/16 13:08:57;;;;;;;;;;;;;;;4.29;55.68;102301.25;1953631;73;20177;-37
2023/02/16 13:11:27;;;;;;;;;;;;;;;4.32;55.61;102296.08;1953340;73;20213;-38
2023/02/16 13:13:57;;;;;;;;;;;;;;;4.25;55.59;102296.42;1955690;72;20129;-39
2023/02/16 13:16:30;;;;;;;;;;;;;;;4.09;55.70;102296.65;1940349;74;20517;-37
2023/02/16 13:18:57;;;;;;;;;;;;;;;3.95;55.94;102296.92;1916489;74;20101;-37
2023/02/16 13:21:30;;;;;;;;;;;;;;;3.82;56.21;102300.66;1944750;74;20116;-37
2023/02/16 13:24:02;;;;;;;;;;;;;;;3.69;56.32;102301.34;1943256;74;20164;-37
2023/02/16 13:26:50;;;;;;;;;;;;;;;3.61;56.54;102302.94;1944080;74;20112;-37
2023/02/16 13:29:26;;;;;;;;;;;;;;;3.58;56.79;102308.09;1944586;73;20105;-37
2023/02/16 13:31:55;;;;;;;;;;;;;;;3.51;56.95;102311.48;1939814;74;20104;-37
2023/02/16 13:34:27;;;;;;;;;;;;;;;3.51;57.03;102312.80;1920049;74;20116;-36
2023/02/16 13:37:02;;;;;;;;;;;;;;;3.40;57.11;102317.39;1918937;74;20104;-36
2023/02/16 13:39:31;;;;;;;;;;;;;;;3.28;57.33;102316.78;1919831;74;20140;-36